createdAt,value
2022-07-25T00:00:26.601Z,100.00
2022-07-25T00:02:53.527Z,100.00
2022-07-25T00:05:21.519Z,100.00
2022-07-25T00:07:49.169Z,100.00
2022-07-25T00:10:16.826Z,100.00
2022-07-25T00:12:43.951Z,100.00
2022-07-25T00:15:11.617Z,100.00
2022-07-25T00:17:38.949Z,100.00
2022-07-25T00:20:07.516Z,100.00
2022-07-25T00:22:34.704Z,100.00
2022-07-25T00:25:01.708Z,100.00
2022-07-25T00:27:28.662Z,100.00
2022-07-25T00:29:55.732Z,100.00
2022-07-25T00:32:22.715Z,100.00
2022-07-25T00:34:49.682Z,100.00
2022-07-25T00:37:16.609Z,100.00
2022-07-25T00:39:43.622Z,100.00
2022-07-25T00:42:10.602Z,100.00
2022-07-25T00:44:37.567Z,100.00
2022-07-25T00:47:05.043Z,100.00
2022-07-25T00:49:32.001Z,100.00
2022-07-25T00:51:59.249Z,100.00
2022-07-25T00:54:26.310Z,100.00
2022-07-25T00:56:53.454Z,100.00
2022-07-25T00:59:20.502Z,100.00
2022-07-25T01:01:48.818Z,100.00
2022-07-25T01:04:17.059Z,100.00
2022-07-25T01:06:44.504Z,100.00
2022-07-25T01:09:11.555Z,100.00
2022-07-25T01:11:39.112Z,100.00
2022-07-25T01:14:06.902Z,100.00
2022-07-25T01:16:34.098Z,100.00
2022-07-25T01:19:01.172Z,100.00
2022-07-25T01:21:28.409Z,100.00
2022-07-25T01:23:55.572Z,100.00
2022-07-25T01:26:22.565Z,100.00
2022-07-25T01:28:49.596Z,100.00
2022-07-25T01:31:16.756Z,100.00
2022-07-25T01:33:43.827Z,100.00
2022-07-25T01:36:11.046Z,100.00
2022-07-25T01:38:37.967Z,100.00
2022-07-25T01:41:05.197Z,100.00
2022-07-25T01:43:32.235Z,100.00
2022-07-25T01:45:59.267Z,100.00
2022-07-25T01:48:26.354Z,100.00
2022-07-25T01:50:53.393Z,100.00
2022-07-25T01:53:21.451Z,100.00
2022-07-25T01:55:48.438Z,100.00
2022-07-25T01:58:15.400Z,100.00
2022-07-25T02:00:42.527Z,100.00
2022-07-25T02:03:27.837Z,100.00
2022-07-25T02:05:55.102Z,100.00
2022-07-25T02:08:23.300Z,100.00
2022-07-25T02:10:50.767Z,100.00
2022-07-25T02:13:17.756Z,100.00
2022-07-25T02:15:44.788Z,100.00
2022-07-25T02:18:11.807Z,100.00
2022-07-25T02:20:38.818Z,100.00
2022-07-25T02:23:06.124Z,100.00
2022-07-25T02:25:33.361Z,100.00
2022-07-25T02:28:00.638Z,100.00
2022-07-25T02:30:28.361Z,100.00
2022-07-25T02:32:55.386Z,100.00
2022-07-25T02:35:22.790Z,100.00
2022-07-25T02:37:49.754Z,100.00
2022-07-25T02:40:16.708Z,100.00
2022-07-25T02:42:43.677Z,100.00
2022-07-25T02:45:11.019Z,100.00
2022-07-25T02:47:38.225Z,100.00
2022-07-25T02:50:05.986Z,100.00
2022-07-25T02:52:32.980Z,100.00
2022-07-25T02:55:02.242Z,100.00
2022-07-25T02:57:31.886Z,100.00
2022-07-25T02:59:58.810Z,100.00
2022-07-25T03:02:25.729Z,100.00
2022-07-25T03:04:52.688Z,100.00
2022-07-25T03:07:19.688Z,100.00
2022-07-25T03:09:46.622Z,100.00
2022-07-25T03:12:13.594Z,100.00
2022-07-25T03:14:40.565Z,100.00
2022-07-25T03:17:07.609Z,100.00
2022-07-25T03:19:34.645Z,100.00
2022-07-25T03:22:01.578Z,100.00
2022-07-25T03:24:28.602Z,100.00
2022-07-25T03:26:55.580Z,100.00
2022-07-25T03:29:22.530Z,100.00
2022-07-25T03:31:49.553Z,100.00
2022-07-25T03:34:16.639Z,100.00
2022-07-25T03:36:43.553Z,100.00
2022-07-25T03:39:10.609Z,100.00
2022-07-25T03:41:37.593Z,100.00
2022-07-25T03:44:05.034Z,100.00
2022-07-25T03:46:32.185Z,100.00
2022-07-25T03:48:59.242Z,100.00
2022-07-25T03:51:26.325Z,100.00
2022-07-25T03:54:01.900Z,100.00
2022-07-25T03:56:50.726Z,100.00
2022-07-25T03:59:20.749Z,100.00
2022-07-25T04:01:50.124Z,100.00
2022-07-25T04:04:19.464Z,100.00
2022-07-25T04:06:47.066Z,100.00
2022-07-25T04:09:15.628Z,100.00
2022-07-25T04:11:43.006Z,100.00
2022-07-25T04:14:10.708Z,100.00
2022-07-25T04:16:38.213Z,100.00
2022-07-25T04:19:07.611Z,100.00
2022-07-25T04:21:36.511Z,100.00
2022-07-25T04:24:04.209Z,100.00
2022-07-25T04:26:31.336Z,100.00
2022-07-25T04:28:58.752Z,100.00
2022-07-25T04:31:26.121Z,100.00
2022-07-25T04:33:53.202Z,100.00
2022-07-25T04:36:20.227Z,100.00
2022-07-25T04:38:47.177Z,100.00
2022-07-25T04:41:14.188Z,100.00
2022-07-25T04:43:46.333Z,100.00
2022-07-25T04:46:20.946Z,100.00
2022-07-25T04:48:48.966Z,100.00
2022-07-25T04:51:17.673Z,100.00
2022-07-25T04:53:44.966Z,100.00
2022-07-25T04:56:12.142Z,100.00
2022-07-25T04:58:39.438Z,100.00
2022-07-25T05:01:07.258Z,100.00
2022-07-25T05:03:34.618Z,100.00
2022-07-25T05:06:01.605Z,100.00
2022-07-25T05:08:29.490Z,100.00
2022-07-25T05:10:56.438Z,100.00
2022-07-25T05:13:23.417Z,100.00
2022-07-25T05:15:50.355Z,100.00
2022-07-25T05:18:17.417Z,100.00
2022-07-25T05:20:44.390Z,100.00
2022-07-25T05:23:11.343Z,100.00
2022-07-25T05:25:38.366Z,100.00
2022-07-25T05:28:05.504Z,100.00
2022-07-25T05:30:35.372Z,100.00
2022-07-25T05:33:06.380Z,100.00
2022-07-25T05:35:33.287Z,100.00
2022-07-25T05:38:00.658Z,100.00
2022-07-25T05:40:27.628Z,100.00
2022-07-25T05:42:57.171Z,100.00
2022-07-25T05:45:27.967Z,100.00
2022-07-25T05:47:54.888Z,100.00
2022-07-25T05:50:21.944Z,100.00
2022-07-25T05:52:48.996Z,100.00
2022-07-25T05:55:16.108Z,100.00
2022-07-25T05:57:43.110Z,100.00
2022-07-25T06:00:11.203Z,100.00
2022-07-25T06:02:38.393Z,100.00
2022-07-25T06:05:05.816Z,100.00
2022-07-25T06:07:32.757Z,100.00
2022-07-25T06:09:59.747Z,100.00
2022-07-25T06:12:26.720Z,100.00
2022-07-25T06:14:53.899Z,100.00
2022-07-25T06:17:21.252Z,100.00
2022-07-25T06:19:48.216Z,100.00
2022-07-25T06:22:15.199Z,100.00
2022-07-25T06:24:42.160Z,100.00
2022-07-25T06:27:09.256Z,100.00
2022-07-25T06:29:37.602Z,100.00
2022-07-25T06:32:05.064Z,100.00
2022-07-25T06:34:32.064Z,100.00
2022-07-25T06:36:59.520Z,100.00
2022-07-25T06:39:28.039Z,100.00
2022-07-25T06:41:55.004Z,100.00
2022-07-25T06:44:22.036Z,100.00
2022-07-25T06:46:51.713Z,100.00
2022-07-25T06:49:18.900Z,100.00
2022-07-25T06:51:45.819Z,100.00
2022-07-25T06:54:14.246Z,100.00
2022-07-25T06:56:41.354Z,100.00
2022-07-25T06:59:08.373Z,100.00
2022-07-25T07:01:35.491Z,100.00
2022-07-25T07:04:03.235Z,100.00
2022-07-25T07:06:30.593Z,100.00
2022-07-25T07:08:57.611Z,100.00
2022-07-25T07:11:24.751Z,100.00
2022-07-25T07:13:51.666Z,100.00
2022-07-25T07:16:18.840Z,100.00
2022-07-25T07:18:49.150Z,100.00
2022-07-25T07:21:21.126Z,100.00
2022-07-25T07:23:49.144Z,100.00
2022-07-25T07:26:21.336Z,100.00
2022-07-25T07:28:48.331Z,100.00
2022-07-25T07:31:18.429Z,100.00
2022-07-25T07:33:45.831Z,100.00
2022-07-25T07:36:12.952Z,100.00
2022-07-25T07:38:40.034Z,100.00
2022-07-25T07:41:07.721Z,100.00
2022-07-25T07:43:35.826Z,100.00
2022-07-25T07:46:03.047Z,100.00
2022-07-25T07:48:31.550Z,100.00
2022-07-25T07:51:00.469Z,100.00
2022-07-25T07:53:47.000Z,100.00
2022-07-25T07:56:15.761Z,98.24
2022-07-25T07:58:43.314Z,97.91
2022-07-25T08:01:10.686Z,95.51
2022-07-25T08:03:37.899Z,94.63
2022-07-25T08:06:05.257Z,93.34
2022-07-25T08:08:32.581Z,90.25
2022-07-25T08:10:59.913Z,88.16
2022-07-25T08:13:33.942Z,87.21
2022-07-25T08:16:03.701Z,87.20
2022-07-25T08:18:32.944Z,88.38
2022-07-25T08:21:03.363Z,88.56
2022-07-25T08:23:31.855Z,87.35
2022-07-25T08:25:59.425Z,86.48
2022-07-25T08:28:26.560Z,87.62
2022-07-25T08:30:54.270Z,86.68
2022-07-25T08:33:21.454Z,85.88
2022-07-25T08:35:54.983Z,84.08
2022-07-25T08:38:24.207Z,84.27
2022-07-25T08:40:52.135Z,81.82
2022-07-25T08:43:19.507Z,81.49
2022-07-25T08:45:52.318Z,79.97
2022-07-25T08:48:25.701Z,79.58
2022-07-25T08:50:54.612Z,76.16
2022-07-25T08:53:37.985Z,75.54
2022-07-25T08:56:13.317Z,77.19
2022-07-25T08:58:43.766Z,79.38
2022-07-25T09:01:12.811Z,76.22
2022-07-25T09:03:41.405Z,76.50
2022-07-25T09:06:22.100Z,71.26
2022-07-25T09:09:08.546Z,66.96
2022-07-25T09:11:37.711Z,65.53
2022-07-25T09:14:09.108Z,68.59
2022-07-25T09:16:44.850Z,66.38
2022-07-25T09:19:19.105Z,64.39
2022-07-25T09:22:01.425Z,64.22
2022-07-25T09:24:29.826Z,64.11
2022-07-25T09:27:00.116Z,64.04
2022-07-25T09:29:30.157Z,63.81
2022-07-25T09:31:59.042Z,61.97
2022-07-25T09:34:41.570Z,61.57
2022-07-25T09:37:13.280Z,61.87
2022-07-25T09:39:47.405Z,61.38
2022-07-25T09:42:26.458Z,61.25
2022-07-25T09:45:12.998Z,61.32
2022-07-25T09:47:59.282Z,58.87
2022-07-25T09:50:29.477Z,58.64
2022-07-25T09:52:59.842Z,55.97
2022-07-25T09:55:26.937Z,57.58
2022-07-25T09:57:53.904Z,54.62
2022-07-25T10:00:26.536Z,54.54
2022-07-25T10:03:11.522Z,55.40
2022-07-25T10:06:10.213Z,49.79
2022-07-25T10:08:39.063Z,52.01
2022-07-25T10:11:18.373Z,51.09
2022-07-25T10:13:45.609Z,48.98
2022-07-25T10:16:25.724Z,47.41
2022-07-25T10:18:59.165Z,44.19
2022-07-25T10:21:28.283Z,43.02
2022-07-25T10:24:04.600Z,42.40
2022-07-25T10:26:34.670Z,42.94
2022-07-25T10:29:11.657Z,41.95
2022-07-25T10:31:49.868Z,41.25
2022-07-25T10:34:30.962Z,41.04
2022-07-25T10:37:11.955Z,39.13
2022-07-25T10:39:41.712Z,39.75
2022-07-25T10:42:14.982Z,39.42
2022-07-25T10:44:44.944Z,38.46
2022-07-25T10:47:15.296Z,34.83
2022-07-25T10:50:13.914Z,36.37
2022-07-25T10:52:42.417Z,36.82
2022-07-25T10:55:09.812Z,37.99
2022-07-25T10:57:54.974Z,38.87
2022-07-25T11:00:27.589Z,37.74
2022-07-25T11:02:57.788Z,37.32
2022-07-25T11:05:25.115Z,36.63
2022-07-25T11:08:19.044Z,35.59
2022-07-25T11:10:40.695Z,34.84
2022-07-25T11:13:14.810Z,34.66
2022-07-25T11:15:43.826Z,35.53
2022-07-25T11:18:12.057Z,36.06
2022-07-25T11:20:39.107Z,35.92
2022-07-25T11:23:06.679Z,35.61
2022-07-25T11:25:33.713Z,35.55
2022-07-25T11:28:03.070Z,35.06
2022-07-25T11:30:30.845Z,35.20
2022-07-25T11:33:01.676Z,35.12
2022-07-25T11:35:33.722Z,35.68
2022-07-25T11:38:02.885Z,36.19
2022-07-25T11:40:32.544Z,36.05
2022-07-25T11:43:01.196Z,36.80
2022-07-25T11:45:33.887Z,36.37
2022-07-25T11:48:13.382Z,36.08
2022-07-25T11:50:44.307Z,36.69
2022-07-25T11:53:14.814Z,36.95
2022-07-25T11:55:43.610Z,36.79
2022-07-25T11:58:13.624Z,36.30
2022-07-25T12:00:44.972Z,35.21
2022-07-25T12:03:20.216Z,34.81
2022-07-25T12:05:49.120Z,35.35
2022-07-25T12:08:23.679Z,33.98
2022-07-25T12:10:51.392Z,33.55
2022-07-25T12:13:28.704Z,33.84
2022-07-25T12:16:00.175Z,33.04
2022-07-25T12:18:28.018Z,33.40
2022-07-25T12:20:55.414Z,31.87
2022-07-25T12:23:22.631Z,31.92
2022-07-25T12:25:50.184Z,31.68
2022-07-25T12:28:17.547Z,31.75
2022-07-25T12:30:46.784Z,31.61
2022-07-25T12:33:14.840Z,32.30
2022-07-25T12:35:43.596Z,32.13
2022-07-25T12:38:14.322Z,32.34
2022-07-25T12:40:41.328Z,32.19
2022-07-25T12:43:08.726Z,31.58
2022-07-25T12:45:35.725Z,31.34
2022-07-25T12:48:02.877Z,31.59
2022-07-25T12:50:30.029Z,31.99
2022-07-25T12:52:57.013Z,32.09
2022-07-25T12:55:24.125Z,32.62
2022-07-25T12:57:51.186Z,32.90
2022-07-25T13:00:21.757Z,32.33
2022-07-25T13:02:51.935Z,32.66
2022-07-25T13:05:19.893Z,31.70
2022-07-25T13:07:48.973Z,31.80
2022-07-25T13:10:16.953Z,32.29
2022-07-25T13:12:44.673Z,32.09
2022-07-25T13:15:11.824Z,31.91
2022-07-25T13:17:40.372Z,31.91
2022-07-25T13:20:09.271Z,31.70
2022-07-25T13:22:36.393Z,32.39
2022-07-25T13:25:04.236Z,32.47
2022-07-25T13:27:31.208Z,32.54
2022-07-25T13:29:58.306Z,33.21
2022-07-25T13:32:28.586Z,32.93
2022-07-25T13:34:55.824Z,32.85
2022-07-25T13:37:23.118Z,33.03
2022-07-25T13:39:50.275Z,33.39
2022-07-25T13:42:17.470Z,33.36
2022-07-25T13:44:44.461Z,33.32
2022-07-25T13:47:11.601Z,32.71
2022-07-25T13:49:38.851Z,33.22
2022-07-25T13:52:06.386Z,33.32
2022-07-25T13:54:33.556Z,33.48
2022-07-25T13:57:03.296Z,34.94
2022-07-25T13:59:30.550Z,35.70
2022-07-25T14:01:57.707Z,40.26
2022-07-25T14:04:24.870Z,45.53
2022-07-25T14:06:52.341Z,42.51
2022-07-25T14:09:21.568Z,38.86
2022-07-25T14:11:49.030Z,34.78
2022-07-25T14:14:16.473Z,32.39
2022-07-25T14:16:45.764Z,30.42
2022-07-25T14:19:12.902Z,30.74
2022-07-25T14:21:40.050Z,31.29
2022-07-25T14:24:07.822Z,31.74
2022-07-25T14:26:35.750Z,31.96
2022-07-25T14:29:04.468Z,31.53
2022-07-25T14:31:32.827Z,31.02
2022-07-25T14:33:59.919Z,30.23
2022-07-25T14:36:27.792Z,30.73
2022-07-25T14:38:54.852Z,29.87
2022-07-25T14:41:22.631Z,28.86
2022-07-25T14:43:49.713Z,28.26
2022-07-25T14:46:16.888Z,28.32
2022-07-25T14:48:44.358Z,27.58
2022-07-25T14:51:11.518Z,26.30
2022-07-25T14:53:40.054Z,26.89
2022-07-25T14:56:07.456Z,26.38
2022-07-25T14:58:35.248Z,25.40
2022-07-25T15:01:02.652Z,24.67
2022-07-25T15:03:30.274Z,25.10
2022-07-25T15:05:57.544Z,25.50
2022-07-25T15:08:24.841Z,26.16
2022-07-25T15:10:55.910Z,25.84
2022-07-25T15:13:31.340Z,25.32
2022-07-25T15:15:59.827Z,24.13
2022-07-25T15:18:26.973Z,25.06
2022-07-25T15:20:55.316Z,25.32
2022-07-25T15:23:30.251Z,25.84
2022-07-25T15:26:02.672Z,26.13
2022-07-25T15:28:35.517Z,26.46
2022-07-25T15:31:03.750Z,28.29
2022-07-25T15:33:31.411Z,28.67
2022-07-25T15:35:59.129Z,29.49
2022-07-25T15:38:26.468Z,28.93
2022-07-25T15:40:53.632Z,29.20
2022-07-25T15:43:21.227Z,29.64
2022-07-25T15:45:48.358Z,28.94
2022-07-25T15:48:17.012Z,28.66
2022-07-25T15:50:49.341Z,28.94
2022-07-25T15:53:19.563Z,27.70
2022-07-25T15:55:46.629Z,27.77
2022-07-25T15:58:13.726Z,25.98
2022-07-25T16:00:41.870Z,25.55
2022-07-25T16:03:09.821Z,25.37
2022-07-25T16:05:38.567Z,25.53
2022-07-25T16:08:08.375Z,23.76
2022-07-25T16:10:37.639Z,23.88
2022-07-25T16:13:04.733Z,24.29
2022-07-25T16:15:32.038Z,24.12
2022-07-25T16:18:02.708Z,24.65
2022-07-25T16:20:32.224Z,23.40
2022-07-25T16:23:00.396Z,21.73
2022-07-25T16:25:28.567Z,22.31
2022-07-25T16:27:56.504Z,22.45
2022-07-25T16:30:24.061Z,23.30
2022-07-25T16:32:51.314Z,23.39
2022-07-25T16:35:18.680Z,23.64
2022-07-25T16:37:46.425Z,22.96
2022-07-25T16:40:14.393Z,23.47
2022-07-25T16:42:42.164Z,24.25
2022-07-25T16:45:10.770Z,25.04
2022-07-25T16:47:40.881Z,25.13
2022-07-25T16:50:08.685Z,24.74
2022-07-25T16:52:37.417Z,23.76
2022-07-25T16:55:05.345Z,24.80
2022-07-25T16:57:32.845Z,23.39
2022-07-25T17:00:01.009Z,26.29
2022-07-25T17:02:29.836Z,27.16
2022-07-25T17:04:57.552Z,27.57
2022-07-25T17:07:25.538Z,29.18
2022-07-25T17:09:55.640Z,30.58
2022-07-25T17:12:22.877Z,31.32
2022-07-25T17:14:49.941Z,32.45
2022-07-25T17:17:18.362Z,32.26
2022-07-25T17:19:47.707Z,31.77
2022-07-25T17:22:14.983Z,31.00
2022-07-25T17:24:42.489Z,30.56
2022-07-25T17:27:10.181Z,30.91
2022-07-25T17:29:37.708Z,31.69
2022-07-25T17:32:08.529Z,32.12
2022-07-25T17:34:35.660Z,32.44
2022-07-25T17:37:03.095Z,32.95
2022-07-25T17:39:34.926Z,33.22
2022-07-25T17:42:07.068Z,33.01
2022-07-25T17:44:34.946Z,34.10
2022-07-25T17:47:03.460Z,34.09
2022-07-25T17:49:30.628Z,34.22
2022-07-25T17:51:58.343Z,34.33
2022-07-25T17:54:25.334Z,34.69
2022-07-25T17:56:52.786Z,35.11
2022-07-25T17:59:19.923Z,34.93
2022-07-25T18:01:47.001Z,34.66
2022-07-25T18:04:14.748Z,35.24
2022-07-25T18:06:41.831Z,34.97
2022-07-25T18:09:09.414Z,35.17
2022-07-25T18:11:36.665Z,35.16
2022-07-25T18:14:03.858Z,35.47
2022-07-25T18:16:31.775Z,35.61
2022-07-25T18:18:58.860Z,35.55
2022-07-25T18:21:26.047Z,36.05
2022-07-25T18:23:53.094Z,36.05
2022-07-25T18:26:21.815Z,36.02
2022-07-25T18:28:49.096Z,36.14
2022-07-25T18:31:16.274Z,36.38
2022-07-25T18:33:43.575Z,36.78
2022-07-25T18:36:10.760Z,36.87
2022-07-25T18:38:37.894Z,37.15
2022-07-25T18:41:29.144Z,37.48
2022-07-25T18:43:53.493Z,38.03
2022-07-25T18:46:20.773Z,37.36
2022-07-25T18:48:48.202Z,37.43
2022-07-25T18:51:15.318Z,36.80
2022-07-25T18:53:47.427Z,36.56
2022-07-25T18:56:16.382Z,36.52
2022-07-25T18:58:44.253Z,36.19
2022-07-25T19:01:12.684Z,35.94
2022-07-25T19:03:40.746Z,36.31
2022-07-25T19:06:09.052Z,36.68
2022-07-25T19:08:36.645Z,36.46
2022-07-25T19:11:04.643Z,37.06
2022-07-25T19:13:49.906Z,37.09
2022-07-25T19:16:17.717Z,38.23
2022-07-25T19:18:45.166Z,38.28
2022-07-25T19:21:12.689Z,38.47
2022-07-25T19:23:39.806Z,38.50
2022-07-25T19:26:06.921Z,39.18
2022-07-25T19:28:36.269Z,39.15
2022-07-25T19:31:03.662Z,39.54
2022-07-25T19:33:34.682Z,39.85
2022-07-25T19:36:04.474Z,39.90
2022-07-25T19:38:32.351Z,40.21
2022-07-25T19:40:59.867Z,40.15
2022-07-25T19:43:26.964Z,40.38
2022-07-25T19:45:54.468Z,40.62
2022-07-25T19:48:23.887Z,41.09
2022-07-25T19:50:52.606Z,41.54
2022-07-25T19:53:22.053Z,41.82
2022-07-25T19:55:51.352Z,42.23
2022-07-25T19:58:18.552Z,42.89
2022-07-25T20:00:45.589Z,43.26
2022-07-25T20:03:12.679Z,43.71
2022-07-25T20:05:41.323Z,44.19
2022-07-25T20:08:08.382Z,44.43
2022-07-25T20:10:35.409Z,44.86
2022-07-25T20:13:04.844Z,45.29
2022-07-25T20:15:32.292Z,45.52
2022-07-25T20:17:59.965Z,45.92
2022-07-25T20:20:27.010Z,46.67
2022-07-25T20:22:54.715Z,47.14
2022-07-25T20:25:21.752Z,47.25
2022-07-25T20:27:51.722Z,48.07
2022-07-25T20:30:20.249Z,48.05
2022-07-25T20:32:47.319Z,48.94
2022-07-25T20:35:14.458Z,49.35
2022-07-25T20:37:41.526Z,49.56
2022-07-25T20:40:09.639Z,50.00
2022-07-25T20:42:37.219Z,50.38
2022-07-25T20:45:06.138Z,51.08
2022-07-25T20:47:34.133Z,51.58
2022-07-25T20:50:02.295Z,52.13
2022-07-25T20:52:30.316Z,52.65
2022-07-25T20:54:57.461Z,53.43
2022-07-25T20:57:24.548Z,53.64
2022-07-25T20:59:51.568Z,54.16
2022-07-25T21:02:18.716Z,55.29
2022-07-25T21:04:48.364Z,56.19
2022-07-25T21:07:17.349Z,56.86
2022-07-25T21:09:45.109Z,58.06
2022-07-25T21:12:12.139Z,57.86
2022-07-25T21:14:39.136Z,58.98
2022-07-25T21:17:06.252Z,59.68
2022-07-25T21:19:33.443Z,60.12
2022-07-25T21:22:01.610Z,60.98
2022-07-25T21:24:28.655Z,61.43
2022-07-25T21:26:55.647Z,61.40
2022-07-25T21:29:22.695Z,64.10
2022-07-25T21:31:50.128Z,64.13
2022-07-25T21:34:17.167Z,64.30
2022-07-25T21:36:44.275Z,64.41
2022-07-25T21:39:11.340Z,65.71
2022-07-25T21:41:38.311Z,64.47
2022-07-25T21:44:05.467Z,66.21
2022-07-25T21:46:32.575Z,67.45
2022-07-25T21:49:18.452Z,67.47
2022-07-25T21:52:05.824Z,67.36
2022-07-25T21:54:33.505Z,68.32
2022-07-25T21:57:00.543Z,68.42
2022-07-25T21:59:27.621Z,69.23
2022-07-25T22:01:54.670Z,70.44
2022-07-25T22:04:21.780Z,70.52
2022-07-25T22:06:48.921Z,70.47
2022-07-25T22:09:16.067Z,71.05
2022-07-25T22:11:46.538Z,71.42
2022-07-25T22:14:14.666Z,70.99
2022-07-25T22:16:42.484Z,71.93
2022-07-25T22:19:09.975Z,72.92
2022-07-25T22:21:37.281Z,73.09
2022-07-25T22:24:04.567Z,73.54
2022-07-25T22:26:31.559Z,72.28
2022-07-25T22:28:58.575Z,74.39
2022-07-25T22:31:25.763Z,75.67
2022-07-25T22:33:52.999Z,75.10
2022-07-25T22:36:20.547Z,74.95
2022-07-25T22:38:47.730Z,75.57
2022-07-25T22:41:14.780Z,76.04
2022-07-25T22:43:56.716Z,75.74
2022-07-25T22:46:28.315Z,76.36
2022-07-25T22:48:56.386Z,76.97
2022-07-25T22:51:24.050Z,76.77
2022-07-25T22:53:51.405Z,76.53
2022-07-25T22:56:18.750Z,78.14
2022-07-25T22:58:48.722Z,77.49
2022-07-25T23:01:18.050Z,77.06
2022-07-25T23:03:46.191Z,77.41
2022-07-25T23:06:13.613Z,78.01
2022-07-25T23:08:40.640Z,79.73
2022-07-25T23:11:08.793Z,81.34
2022-07-25T23:13:36.893Z,86.01
2022-07-25T23:16:05.240Z,83.31
2022-07-25T23:18:37.954Z,78.47
2022-07-25T23:21:05.233Z,70.84
2022-07-25T23:23:32.441Z,69.97
2022-07-25T23:25:59.509Z,71.10
2022-07-25T23:28:26.533Z,67.82
2022-07-25T23:30:53.532Z,67.44
2022-07-25T23:33:25.311Z,66.85
2022-07-25T23:35:53.320Z,64.93
2022-07-25T23:38:20.929Z,65.67
2022-07-25T23:40:49.620Z,65.01
2022-07-25T23:43:24.734Z,65.13
2022-07-25T23:46:04.056Z,66.01
2022-07-25T23:48:31.086Z,65.06
2022-07-25T23:50:58.034Z,66.80
2022-07-25T23:53:25.094Z,67.07
2022-07-25T23:55:52.076Z,66.96
2022-07-25T23:58:19.067Z,66.87
